createdAt,value
2018-09-14T00:03:51.544Z,1.67
2018-09-14T00:08:54.864Z,1.98
2018-09-14T00:13:58.270Z,1.87
2018-09-14T00:19:01.638Z,1.70
2018-09-14T00:24:05.057Z,1.27
2018-09-14T00:29:08.417Z,1.42
2018-09-14T00:34:11.749Z,1.57
2018-09-14T00:39:15.085Z,1.77
2018-09-14T00:44:18.401Z,1.67
2018-09-14T00:49:21.754Z,1.30
2018-09-14T00:54:25.097Z,1.70
2018-09-14T00:59:28.439Z,1.27
2018-09-14T01:04:31.802Z,1.25
2018-09-14T01:09:35.150Z,1.20
2018-09-14T01:14:38.473Z,1.57
2018-09-14T01:19:41.832Z,1.40
2018-09-14T01:24:45.163Z,1.27
2018-09-14T01:29:48.529Z,1.50
2018-09-14T01:34:51.884Z,1.90
2018-09-14T01:39:55.218Z,2.10
2018-09-14T01:44:58.566Z,2.20
2018-09-14T01:50:02.040Z,2.02
2018-09-14T01:55:06.402Z,2.28
2018-09-14T02:00:09.767Z,2.80
2018-09-14T02:05:13.110Z,2.33
2018-09-14T02:10:23.606Z,2.30
2018-09-14T02:15:26.938Z,2.60
2018-09-14T02:20:30.231Z,2.33
2018-09-14T02:25:33.611Z,2.40
2018-09-14T02:30:36.955Z,2.10
2018-09-14T02:35:40.259Z,1.75
2018-09-14T02:40:43.591Z,1.52
2018-09-14T02:45:46.941Z,1.60
2018-09-14T02:50:50.303Z,1.70
2018-09-14T02:55:53.746Z,1.90
2018-09-14T03:00:57.075Z,1.67
2018-09-14T03:06:00.406Z,1.98
2018-09-14T03:11:03.727Z,1.55
2018-09-14T03:16:07.023Z,1.80
2018-09-14T03:21:10.379Z,2.10
2018-09-14T03:26:14.140Z,2.08
2018-09-14T03:31:17.447Z,1.65
2018-09-14T03:36:20.750Z,2.33
2018-09-14T03:41:24.055Z,3.42
2018-09-14T03:46:27.375Z,3.20
2018-09-14T03:51:30.700Z,3.83
2018-09-14T03:56:34.017Z,3.98
2018-09-14T04:01:37.329Z,4.58
2018-09-14T04:06:40.633Z,4.60
2018-09-14T04:11:44.085Z,4.53
2018-09-14T04:16:47.429Z,4.65
2018-09-14T04:21:50.722Z,5.05
2018-09-14T04:26:54.066Z,6.30
2018-09-14T04:31:57.434Z,6.35
2018-09-14T04:37:00.750Z,6.42
2018-09-14T04:42:04.146Z,6.62
2018-09-14T04:47:07.435Z,6.70
2018-09-14T04:52:10.809Z,6.65
2018-09-14T04:57:14.189Z,6.55
2018-09-14T05:02:17.606Z,7.08
2018-09-14T05:07:20.939Z,6.97
2018-09-14T05:12:25.074Z,7.20
2018-09-14T05:17:28.400Z,7.85
2018-09-14T05:22:31.719Z,8.88
2018-09-14T05:27:35.039Z,8.50
2018-09-14T05:32:38.379Z,9.35
2018-09-14T05:37:41.699Z,9.48
2018-09-14T05:42:45.057Z,9.40
2018-09-14T05:47:48.380Z,9.80
2018-09-14T05:52:51.706Z,10.60
2018-09-14T05:57:55.022Z,9.55
2018-09-14T06:02:58.411Z,9.03
2018-09-14T06:08:01.748Z,9.70
2018-09-14T06:13:05.079Z,9.53
2018-09-14T06:18:08.384Z,9.23
2018-09-14T06:28:21.282Z,9.53
2018-09-14T06:33:24.646Z,10.10
2018-09-14T06:38:27.986Z,9.48
2018-09-14T06:43:31.327Z,8.98
2018-09-14T06:48:34.654Z,9.48
2018-09-14T06:53:38.060Z,9.23
2018-09-14T06:58:41.419Z,10.88
2018-09-14T07:03:44.771Z,9.50
2018-09-14T07:08:48.167Z,9.43
2018-09-14T07:13:51.483Z,9.98
2018-09-14T07:18:54.840Z,9.38
2018-09-14T07:23:58.170Z,9.28
2018-09-14T07:29:01.569Z,9.43
2018-09-14T07:34:04.836Z,9.83
2018-09-14T07:39:09.512Z,10.80
2018-09-14T07:44:12.837Z,10.60
2018-09-14T07:49:16.166Z,10.03
2018-09-14T07:54:19.459Z,12.15
2018-09-14T07:59:22.778Z,9.60
2018-09-14T08:04:26.226Z,9.55
2018-09-14T08:09:29.560Z,10.40
2018-09-14T08:14:32.869Z,10.63
2018-09-14T08:19:36.173Z,9.53
2018-09-14T08:24:39.538Z,9.33
2018-09-14T08:29:42.855Z,8.78
2018-09-14T08:34:46.201Z,10.15
2018-09-14T08:39:49.509Z,10.80
2018-09-14T08:44:53.054Z,10.32
2018-09-14T08:49:56.350Z,11.18
2018-09-14T08:54:59.686Z,11.65
2018-09-14T09:00:03.089Z,12.15
2018-09-14T09:05:06.580Z,12.30
2018-09-14T09:10:09.876Z,13.00
2018-09-14T09:15:13.201Z,12.60
2018-09-14T09:20:16.511Z,11.73
2018-09-14T09:25:19.856Z,11.43
2018-09-14T09:30:23.198Z,11.63
2018-09-14T09:35:26.543Z,11.28
2018-09-14T09:40:29.863Z,11.60
2018-09-14T09:45:33.185Z,10.78
2018-09-14T09:50:36.554Z,10.05
2018-09-14T09:55:39.871Z,9.25
2018-09-14T10:00:48.639Z,9.05
2018-09-14T10:06:01.222Z,9.70
2018-09-14T10:11:04.576Z,9.88
2018-09-14T10:16:07.912Z,11.97
2018-09-14T10:21:11.257Z,10.08
2018-09-14T10:26:14.613Z,9.70
2018-09-14T10:31:17.943Z,9.35
2018-09-14T10:36:21.257Z,9.10
2018-09-14T10:41:24.577Z,8.43
2018-09-14T10:46:27.943Z,8.03
2018-09-14T10:51:31.482Z,7.80
2018-09-14T10:56:34.795Z,5.55
2018-09-14T11:01:38.150Z,6.47
2018-09-14T11:06:41.590Z,5.20
2018-09-14T11:11:44.874Z,4.83
2018-09-14T11:16:48.175Z,4.50
2018-09-14T11:21:51.511Z,5.30
2018-09-14T11:26:54.850Z,5.40
2018-09-14T11:31:58.155Z,5.83
2018-09-14T11:37:01.520Z,5.95
2018-09-14T11:42:04.926Z,5.75
2018-09-14T11:47:08.255Z,4.95
2018-09-14T11:52:11.571Z,4.45
2018-09-14T11:57:14.866Z,3.98
2018-09-14T12:02:18.206Z,4.12
2018-09-14T12:07:21.539Z,4.33
2018-09-14T12:12:25.099Z,4.43
2018-09-14T12:17:28.490Z,4.45
2018-09-14T12:22:31.881Z,4.25
2018-09-14T12:27:35.218Z,4.15
2018-09-14T12:32:38.643Z,4.25
2018-09-14T12:37:41.975Z,4.67
2018-09-14T12:42:45.848Z,4.33
2018-09-14T12:47:49.341Z,4.35
2018-09-14T12:52:52.826Z,4.25
2018-09-14T12:57:56.227Z,4.50
2018-09-14T13:02:59.592Z,3.92
2018-09-14T13:08:03.183Z,3.90
2018-09-14T13:13:06.639Z,4.40
2018-09-14T13:18:09.994Z,3.52
2018-09-14T13:23:14.038Z,4.45
2018-09-14T13:28:17.511Z,4.37
2018-09-14T13:33:20.935Z,4.25
2018-09-14T13:38:24.251Z,3.92
2018-09-14T13:43:27.599Z,4.35
2018-09-14T13:48:30.910Z,4.03
2018-09-14T13:53:34.324Z,3.85
2018-09-14T13:58:37.638Z,3.80
2018-09-14T14:03:40.957Z,3.37
2018-09-14T14:08:44.291Z,3.45
2018-09-14T14:13:47.836Z,3.10
2018-09-14T14:18:51.122Z,3.55
2018-09-14T14:23:54.477Z,3.17
2018-09-14T14:28:57.811Z,3.22
2018-09-14T14:34:01.131Z,2.90
2018-09-14T14:39:05.722Z,3.17
2018-09-14T14:44:09.039Z,3.00
2018-09-14T14:49:12.426Z,2.87
2018-09-14T14:54:15.842Z,3.20
2018-09-14T14:59:19.186Z,3.02
2018-09-14T15:04:22.546Z,2.85
2018-09-14T15:09:25.871Z,3.37
2018-09-14T15:14:29.185Z,3.00
2018-09-14T15:19:32.527Z,3.00
2018-09-14T15:24:35.898Z,2.95
2018-09-14T15:29:39.431Z,2.83
2018-09-14T15:34:42.730Z,3.30
2018-09-14T15:39:46.123Z,3.25
2018-09-14T15:44:49.459Z,2.98
2018-09-14T15:49:52.794Z,2.83
2018-09-14T15:54:56.146Z,2.80
2018-09-14T15:59:59.558Z,3.35
2018-09-14T16:05:02.907Z,3.20
2018-09-14T16:10:06.283Z,3.02
2018-09-14T16:15:09.631Z,3.17
2018-09-14T16:20:13.900Z,2.93
2018-09-14T16:25:17.219Z,3.07
2018-09-14T16:30:20.619Z,2.77
2018-09-14T16:35:23.947Z,7.22
2018-09-14T16:40:27.262Z,3.10
2018-09-14T16:45:30.729Z,3.15
2018-09-14T16:50:34.094Z,4.05
2018-09-14T16:55:37.474Z,3.08
2018-09-14T17:00:40.789Z,3.40
2018-09-14T17:05:44.122Z,3.65
2018-09-14T17:10:47.563Z,3.90
2018-09-14T17:15:51.014Z,3.15
2018-09-14T17:20:54.363Z,4.03
2018-09-14T17:25:57.734Z,4.70
2018-09-14T17:31:01.080Z,5.20
2018-09-14T17:36:04.395Z,4.67
2018-09-14T17:41:07.927Z,4.85
2018-09-14T17:46:11.267Z,5.65
2018-09-14T17:51:14.579Z,4.95
2018-09-14T17:56:17.950Z,5.17
2018-09-14T18:01:21.284Z,5.17
2018-09-14T18:06:24.621Z,4.58
2018-09-14T18:11:27.930Z,7.67
2018-09-14T18:16:31.290Z,5.55
2018-09-14T18:21:34.630Z,5.50
2018-09-14T18:26:37.966Z,4.97
2018-09-14T18:31:41.303Z,5.58
2018-09-14T18:36:44.614Z,5.85
2018-09-14T18:41:47.990Z,5.30
2018-09-14T18:46:51.389Z,5.12
2018-09-14T18:51:54.668Z,5.72
2018-09-14T18:56:58.028Z,6.12
2018-09-14T19:02:01.350Z,5.40
2018-09-14T19:07:04.656Z,6.22
2018-09-14T19:12:08.151Z,6.53
2018-09-14T19:17:11.769Z,6.53
2018-09-14T19:22:15.108Z,7.00
2018-09-14T19:27:18.528Z,6.97
2018-09-14T19:32:21.865Z,6.55
2018-09-14T19:37:25.235Z,7.45
2018-09-14T19:42:28.557Z,8.78
2018-09-14T19:47:31.990Z,8.05
2018-09-14T19:52:35.369Z,8.98
2018-09-14T19:57:38.751Z,8.00
2018-09-14T20:02:42.192Z,6.08
2018-09-14T20:07:45.764Z,7.70
2018-09-14T20:12:49.140Z,9.23
2018-09-14T20:17:52.526Z,9.98
2018-09-14T20:22:55.899Z,8.33
2018-09-14T20:27:59.228Z,8.80
2018-09-14T20:33:02.663Z,11.83
2018-09-14T20:38:06.001Z,9.13
2018-09-14T20:43:09.451Z,8.18
2018-09-14T20:48:12.770Z,8.18
2018-09-14T20:53:16.078Z,9.98
2018-09-14T20:58:19.400Z,9.18
2018-09-14T21:03:22.743Z,10.10
2018-09-14T21:08:26.163Z,9.30
2018-09-14T21:13:29.478Z,9.25
2018-09-14T21:18:32.807Z,8.33
2018-09-14T21:23:36.138Z,7.22
2018-09-14T21:28:39.617Z,6.95
2018-09-14T21:33:43.017Z,7.10
2018-09-14T21:38:46.295Z,7.25
2018-09-14T21:43:49.643Z,6.60
2018-09-14T21:48:52.993Z,6.25
2018-09-14T21:53:56.368Z,5.50
2018-09-14T21:58:59.691Z,6.00
2018-09-14T22:04:02.983Z,6.00
2018-09-14T22:09:08.807Z,5.80
2018-09-14T22:14:12.093Z,5.70
2018-09-14T22:19:21.991Z,5.42
2018-09-14T22:24:25.302Z,5.37
2018-09-14T22:29:28.654Z,5.80
2018-09-14T22:34:31.975Z,5.85
2018-09-14T22:39:35.262Z,5.92
2018-09-14T22:44:38.564Z,5.90
2018-09-14T22:49:41.893Z,5.30
2018-09-14T22:54:45.317Z,6.08
2018-09-14T22:59:48.974Z,5.97
2018-09-14T23:04:52.279Z,5.20
2018-09-14T23:09:55.646Z,5.90
2018-09-14T23:14:58.958Z,6.12
2018-09-14T23:20:02.299Z,6.20
2018-09-14T23:25:06.590Z,6.28
2018-09-14T23:30:09.906Z,6.12
2018-09-14T23:35:13.232Z,5.85
2018-09-14T23:40:16.566Z,6.07
2018-09-14T23:45:19.884Z,5.73
2018-09-14T23:50:23.257Z,6.30
2018-09-14T23:55:26.806Z,5.92
